Terminal Aerodrome Forecast
Issued by NWS

Current Version | Previous Version | Graphics & Text | Print | Product List | Glossary On
Versions: 1 2 3 4 5 6 7 8 9 10 11 12 13 14 15 16 17 18 19 20 21 22 23 24 25 26 27 28
137
FTUS41 KRNK 071730
TAFLWB
TAF
KLWB 071730Z 0718/0818 29006KT P6SM SCT025
     FM072000 31003KT P6SM SCT250
     FM080300 00000KT P6SM BKN110 OVC250
     FM081300 29006KT P6SM OVC080
     FM081600 28010G20KT P6SM BKN050=

USA.gov is the U.S. government's official web portal to all federal, state and local government web resources and services.